Time;durP1;ratioP1;P1;durP2;ratioP2;P2;SDS_P1;SDS_P2;PMS_P1;PMS_P2;Temp;Humidity;BMP_temperature;BMP_pressure;BME280_temperature;BME280_humidity;BME280_pressure;Samples;Min_cycle;Max_cycle;Signal;HPM_P1;HPM_P2
2022/11/12 00:00:26;;;;;;;6.35;4.45;;;;;;;;;;5052951;28;20233;-80
2022/11/12 00:02:52;;;;;;;12.07;5.40;;;;;;;;;;5054793;28;20224;-80
2022/11/12 00:05:18;;;;;;;6.78;5.13;;;;;;;;;;5055279;28;20168;-80
2022/11/12 00:07:44;;;;;;;10.57;5.55;;;;;;;;;;5053726;28;20327;-80
2022/11/12 00:10:10;;;;;;;12.25;5.50;;;;;;;;;;5053949;28;20169;-80
2022/11/12 00:12:36;;;;;;;9.40;5.40;;;;;;;;;;5054615;28;20530;-80
2022/11/12 00:15:02;;;;;;;11.45;6.10;;;;;;;;;;5053337;28;20180;-80
2022/11/12 00:17:28;;;;;;;8.90;5.32;;;;;;;;;;5037524;28;20508;-80
2022/11/12 00:19:54;;;;;;;11.50;6.18;;;;;;;;;;5053221;28;20208;-80
2022/11/12 00:22:21;;;;;;;8.60;4.55;;;;;;;;;;5054767;28;20177;-80
2022/11/12 00:24:47;;;;;;;9.38;5.80;;;;;;;;;;5052605;28;20169;-81
2022/11/12 00:27:13;;;;;;;6.88;5.10;;;;;;;;;;5037085;28;20630;-80
2022/11/12 00:29:39;;;;;;;6.15;4.80;;;;;;;;;;5053334;28;20532;-80
2022/11/12 00:32:06;;;;;;;11.48;5.82;;;;;;;;;;5052629;28;20595;-79
2022/11/12 00:34:32;;;;;;;6.55;5.10;;;;;;;;;;5054040;28;20252;-80
2022/11/12 00:36:58;;;;;;;9.90;6.07;;;;;;;;;;5054155;28;20176;-80
2022/11/12 00:39:24;;;;;;;9.15;5.88;;;;;;;;;;5055079;28;20175;-80
2022/11/12 00:41:50;;;;;;;8.48;5.40;;;;;;;;;;5053321;28;20184;-81
2022/11/12 00:44:16;;;;;;;9.48;5.00;;;;;;;;;;5054319;28;20198;-80
2022/11/12 00:46:42;;;;;;;9.50;6.55;;;;;;;;;;5036661;28;20238;-80
2022/11/12 00:49:08;;;;;;;9.40;4.93;;;;;;;;;;5054241;28;20173;-80
2022/11/12 00:51:35;;;;;;;7.03;4.75;;;;;;;;;;5053331;28;20660;-79
2022/11/12 00:54:01;;;;;;;11.18;6.70;;;;;;;;;;5053962;28;20606;-80
2022/11/12 00:56:27;;;;;;;9.88;4.97;;;;;;;;;;5052930;28;20184;-80
2022/11/12 00:58:53;;;;;;;10.25;5.22;;;;;;;;;;5036312;28;20239;-80
2022/11/12 01:01:19;;;;;;;12.02;4.82;;;;;;;;;;5052993;28;20688;-79
2022/11/12 01:03:45;;;;;;;8.48;4.82;;;;;;;;;;5053400;28;20213;-80
2022/11/12 01:06:16;;;;;;;10.90;5.22;;;;;;;;;;5054153;28;20189;-80
2022/11/12 01:08:42;;;;;;;8.23;5.10;;;;;;;;;;5054470;28;20177;-80
2022/11/12 01:11:09;;;;;;;8.15;4.88;;;;;;;;;;5052689;28;20262;-80
2022/11/12 01:13:36;;;;;;;7.28;5.07;;;;;;;;;;5054308;28;20182;-80
2022/11/12 01:16:19;;;;;;;7.60;5.72;;;;;;;;;;5053197;28;20180;-80
2022/11/12 01:18:45;;;;;;;9.93;5.40;;;;;;;;;;5053010;28;20203;-80
2022/11/12 01:21:11;;;;;;;10.13;6.25;;;;;;;;;;5054286;28;20276;-79
2022/11/12 01:23:38;;;;;;;11.80;5.75;;;;;;;;;;5053983;28;20177;-80
2022/11/12 01:26:08;;;;;;;8.70;5.68;;;;;;;;;;5052481;28;20184;-80
2022/11/12 01:28:34;;;;;;;10.23;6.65;;;;;;;;;;5052808;28;20537;-79
2022/11/12 01:31:17;;;;;;;8.15;5.45;;;;;;;;;;5053571;28;20621;-79
2022/11/12 01:33:44;;;;;;;10.15;6.10;;;;;;;;;;5053073;28;20176;-80
2022/11/12 01:36:11;;;;;;;9.93;5.68;;;;;;;;;;5052446;28;20291;-79
2022/11/12 01:38:37;;;;;;;6.32;5.22;;;;;;;;;;5053003;28;20176;-79
2022/11/12 01:41:04;;;;;;;8.27;5.68;;;;;;;;;;5052198;28;20270;-79
2022/11/12 01:43:30;;;;;;;9.98;5.53;;;;;;;;;;5052591;28;20187;-79
2022/11/12 01:45:56;;;;;;;7.65;5.25;;;;;;;;;;5053572;28;20188;-79
2022/11/12 01:48:27;;;;;;;7.38;5.25;;;;;;;;;;5056770;28;20294;-79
2022/11/12 01:50:53;;;;;;;6.25;5.05;;;;;;;;;;5057254;28;20280;-80
2022/11/12 01:53:20;;;;;;;17.60;6.65;;;;;;;;;;5056193;28;20196;-79
2022/11/12 01:55:46;;;;;;;11.27;6.28;;;;;;;;;;5057871;28;20251;-79
2022/11/12 01:58:18;;;;;;;8.70;5.93;;;;;;;;;;5055913;28;20169;-79
2022/11/12 02:00:45;;;;;;;13.80;5.70;;;;;;;;;;5057322;28;20200;-79
2022/11/12 02:03:29;;;;;;;7.72;5.28;;;;;;;;;;5056116;28;20617;-79
2022/11/12 02:06:04;;;;;;;9.40;6.13;;;;;;;;;;5055972;28;20174;-79
2022/11/12 02:08:30;;;;;;;10.75;5.60;;;;;;;;;;5057024;28;20164;-79
2022/11/12 02:10:56;;;;;;;10.77;6.45;;;;;;;;;;5038929;28;20221;-80
2022/11/12 02:16:08;;;;;;;14.60;5.80;;;;;;;;;;5057308;28;20199;-79
2022/11/12 02:18:34;;;;;;;9.88;5.38;;;;;;;;;;5056044;28;20173;-79
2022/11/12 02:21:04;;;;;;;14.23;5.97;;;;;;;;;;5056769;28;20181;-79
2022/11/12 02:23:31;;;;;;;8.93;6.50;;;;;;;;;;5056006;28;20587;-79
2022/11/12 02:25:58;;;;;;;10.60;6.55;;;;;;;;;;5055641;28;20199;-79
2022/11/12 02:28:25;;;;;;;9.38;5.85;;;;;;;;;;5056148;28;20543;-79
2022/11/12 02:30:51;;;;;;;9.30;5.78;;;;;;;;;;5039584;28;20565;-79
2022/11/12 02:33:17;;;;;;;11.85;6.38;;;;;;;;;;5055275;28;20182;-79
2022/11/12 02:35:43;;;;;;;9.82;5.75;;;;;;;;;;5039477;28;20177;-79
2022/11/12 02:38:09;;;;;;;7.55;4.97;;;;;;;;;;5039432;28;20181;-79
2022/11/12 02:40:35;;;;;;;7.03;5.63;;;;;;;;;;5056210;28;20205;-79
2022/11/12 02:43:01;;;;;;;7.93;5.78;;;;;;;;;;5056925;28;20580;-79
2022/11/12 02:45:29;;;;;;;9.02;5.40;;;;;;;;;;5055916;28;20203;-79
2022/11/12 02:47:55;;;;;;;12.27;6.95;;;;;;;;;;5057085;28;20189;-79
2022/11/12 02:50:21;;;;;;;9.93;5.75;;;;;;;;;;5057464;28;20172;-78
2022/11/12 02:52:47;;;;;;;8.75;6.53;;;;;;;;;;5056208;28;20171;-78
2022/11/12 02:55:13;;;;;;;8.15;5.07;;;;;;;;;;5055639;28;20180;-78
2022/11/12 02:57:39;;;;;;;7.88;5.63;;;;;;;;;;5038810;28;20578;-78
2022/11/12 03:00:07;;;;;;;8.93;6.00;;;;;;;;;;5056732;28;20178;-78
2022/11/12 03:02:33;;;;;;;8.82;5.75;;;;;;;;;;5057070;28;20222;-79
2022/11/12 03:04:59;;;;;;;7.32;5.78;;;;;;;;;;5056559;28;20188;-79
2022/11/12 03:07:25;;;;;;;10.05;5.45;;;;;;;;;;5055567;28;20693;-78
2022/11/12 03:09:51;;;;;;;9.45;6.70;;;;;;;;;;5055951;28;20239;-78
2022/11/12 03:12:17;;;;;;;6.82;5.65;;;;;;;;;;5055605;28;20212;-78
2022/11/12 03:14:43;;;;;;;6.30;5.18;;;;;;;;;;5039615;28;20213;-78
2022/11/12 03:17:09;;;;;;;7.57;5.40;;;;;;;;;;5055202;28;20181;-78
2022/11/12 03:19:35;;;;;;;12.40;6.00;;;;;;;;;;5055492;28;20175;-77
2022/11/12 03:22:01;;;;;;;8.02;5.72;;;;;;;;;;5056109;28;20180;-78
2022/11/12 03:24:27;;;;;;;12.63;6.28;;;;;;;;;;5055462;28;20185;-79
2022/11/12 03:26:53;;;;;;;7.88;6.53;;;;;;;;;;5039294;28;20182;-78
2022/11/12 03:29:19;;;;;;;11.93;5.93;;;;;;;;;;5055267;28;20176;-78
2022/11/12 03:31:45;;;;;;;7.43;5.80;;;;;;;;;;5038962;28;20220;-78
2022/11/12 03:34:12;;;;;;;8.52;6.28;;;;;;;;;;5038035;28;20535;-78
2022/11/12 03:36:38;;;;;;;9.43;5.20;;;;;;;;;;5038752;28;20227;-78
2022/11/12 03:39:04;;;;;;;7.30;5.60;;;;;;;;;;5056422;28;20205;-78
2022/11/12 03:41:30;;;;;;;12.18;5.97;;;;;;;;;;5054673;28;20179;-79
2022/11/12 03:43:56;;;;;;;8.25;6.00;;;;;;;;;;5056954;28;20523;-78
2022/11/12 03:46:22;;;;;;;11.65;6.35;;;;;;;;;;5056028;28;20534;-78
2022/11/12 03:48:48;;;;;;;8.88;6.03;;;;;;;;;;5038534;28;20186;-78
2022/11/12 03:51:15;;;;;;;8.30;5.18;;;;;;;;;;5055838;28;20215;-77
2022/11/12 03:53:41;;;;;;;8.07;6.18;;;;;;;;;;5038687;28;20214;-78
2022/11/12 03:56:07;;;;;;;10.48;5.90;;;;;;;;;;5054653;28;20276;-77
2022/11/12 03:58:33;;;;;;;9.40;6.90;;;;;;;;;;5038706;28;20272;-78
2022/11/12 04:00:59;;;;;;;11.90;6.35;;;;;;;;;;5054752;28;20306;-78
2022/11/12 04:03:25;;;;;;;17.58;7.45;;;;;;;;;;5056380;28;20174;-78
2022/11/12 04:08:36;;;;;;;8.40;6.78;;;;;;;;;;5056182;28;20284;-77
2022/11/12 04:11:05;;;;;;;6.70;5.50;;;;;;;;;;5054667;28;20231;-78
2022/11/12 04:13:31;;;;;;;11.70;6.43;;;;;;;;;;5054944;28;20177;-77
2022/11/12 04:21:49;;;;;;;8.52;5.93;;;;;;;;;;5055612;28;20577;-78
2022/11/12 04:27:00;;;;;;;8.45;6.25;;;;;;;;;;5055906;28;20165;-78
2022/11/12 04:32:11;;;;;;;8.82;6.60;;;;;;;;;;5055132;28;20288;-78
2022/11/12 04:34:37;;;;;;;12.85;6.05;;;;;;;;;;5054551;28;20538;-78
2022/11/12 04:37:04;;;;;;;8.07;6.22;;;;;;;;;;5054266;28;20625;-78
2022/11/12 04:39:30;;;;;;;8.10;5.45;;;;;;;;;;5055800;28;20188;-78
2022/11/12 04:45:01;;;;;;;7.00;5.95;;;;;;;;;;5055410;28;20165;-78
2022/11/12 04:47:42;;;;;;;9.43;5.65;;;;;;;;;;5054768;28;20210;-78
2022/11/12 04:50:18;;;;;;;11.60;6.55;;;;;;;;;;5055017;28;20207;-78
2022/11/12 04:52:44;;;;;;;9.23;6.15;;;;;;;;;;5054006;28;20182;-78
2022/11/12 04:55:10;;;;;;;9.10;6.50;;;;;;;;;;5054236;28;20516;-79
2022/11/12 04:57:37;;;;;;;9.93;6.60;;;;;;;;;;5054425;28;20268;-78
2022/11/12 05:00:06;;;;;;;8.10;6.53;;;;;;;;;;5054918;28;20249;-78
2022/11/12 05:02:32;;;;;;;15.15;6.03;;;;;;;;;;5054179;28;20233;-78
2022/11/12 05:04:58;;;;;;;9.10;6.22;;;;;;;;;;5037435;28;20189;-78
2022/11/12 05:07:24;;;;;;;9.60;6.53;;;;;;;;;;5054429;28;20213;-78
2022/11/12 05:09:50;;;;;;;10.52;6.90;;;;;;;;;;5054021;28;20573;-78
2022/11/12 05:12:16;;;;;;;10.27;6.72;;;;;;;;;;5037441;28;20286;-78
2022/11/12 05:14:42;;;;;;;9.63;6.43;;;;;;;;;;5054656;28;20177;-78
2022/11/12 05:17:08;;;;;;;8.30;6.03;;;;;;;;;;5037512;28;20177;-78
2022/11/12 05:19:35;;;;;;;8.02;5.32;;;;;;;;;;5053966;28;20231;-78
2022/11/12 05:22:06;;;;;;;12.70;7.68;;;;;;;;;;5057113;28;20268;-78
2022/11/12 05:24:34;;;;;;;10.82;7.38;;;;;;;;;;5042268;28;20185;-78
2022/11/12 05:27:00;;;;;;;12.00;6.95;;;;;;;;;;5059032;28;20165;-78
2022/11/12 05:29:26;;;;;;;10.32;7.00;;;;;;;;;;5058139;28;20529;-78
2022/11/12 05:31:52;;;;;;;8.82;6.50;;;;;;;;;;5040816;28;20206;-78
2022/11/12 05:34:18;;;;;;;13.05;7.07;;;;;;;;;;5058850;28;20183;-78
2022/11/12 05:36:44;;;;;;;10.40;6.55;;;;;;;;;;5057611;28;20179;-78
2022/11/12 05:39:10;;;;;;;10.00;7.13;;;;;;;;;;5058408;28;20226;-78
2022/11/12 05:41:36;;;;;;;13.23;7.10;;;;;;;;;;5040835;28;20178;-79
2022/11/12 05:44:02;;;;;;;10.52;7.00;;;;;;;;;;5058726;28;20193;-78
2022/11/12 05:46:28;;;;;;;15.60;8.13;;;;;;;;;;5039938;28;20189;-77
2022/11/12 05:48:54;;;;;;;16.75;7.88;;;;;;;;;;5058186;28;20170;-78
2022/11/12 05:51:20;;;;;;;11.95;7.00;;;;;;;;;;5056874;28;20300;-78
2022/11/12 05:53:46;;;;;;;12.80;7.90;;;;;;;;;;5040726;28;20211;-78
2022/11/12 05:56:12;;;;;;;15.48;7.82;;;;;;;;;;5040478;28;20184;-78
2022/11/12 05:58:38;;;;;;;11.65;7.75;;;;;;;;;;5057265;28;20201;-78
2022/11/12 06:01:04;;;;;;;12.98;7.93;;;;;;;;;;5057967;28;20247;-77
2022/11/12 06:03:30;;;;;;;10.57;7.07;;;;;;;;;;5056268;28;20212;-77
2022/11/12 06:05:56;;;;;;;11.35;7.40;;;;;;;;;;5040630;28;20509;-78
2022/11/12 06:08:23;;;;;;;13.98;7.90;;;;;;;;;;5056675;28;20200;-78
2022/11/12 06:10:49;;;;;;;11.95;8.70;;;;;;;;;;5056481;28;20221;-78
2022/11/12 06:13:15;;;;;;;9.65;7.10;;;;;;;;;;5056350;28;20173;-78
2022/11/12 06:15:41;;;;;;;10.35;6.95;;;;;;;;;;5057656;28;20173;-78
2022/11/12 06:18:08;;;;;;;13.45;7.85;;;;;;;;;;5056131;28;20621;-78
2022/11/12 06:20:34;;;;;;;14.38;7.97;;;;;;;;;;5056554;28;20196;-78
2022/11/12 06:23:00;;;;;;;10.95;7.88;;;;;;;;;;5057358;28;20183;-78
2022/11/12 06:25:26;;;;;;;11.07;7.68;;;;;;;;;;5055835;28;20184;-78
2022/11/12 06:27:52;;;;;;;9.30;7.07;;;;;;;;;;5056024;28;20192;-78
2022/11/12 06:30:18;;;;;;;11.70;7.45;;;;;;;;;;5057313;28;20189;-78
2022/11/12 06:32:48;;;;;;;12.93;7.45;;;;;;;;;;5054842;28;20193;-78
2022/11/12 06:35:14;;;;;;;9.60;7.70;;;;;;;;;;5055875;28;20220;-77
2022/11/12 06:37:40;;;;;;;12.70;7.93;;;;;;;;;;5056159;28;20178;-78
2022/11/12 06:40:07;;;;;;;13.10;8.10;;;;;;;;;;5056277;28;20174;-78
2022/11/12 06:42:33;;;;;;;9.50;6.85;;;;;;;;;;5039129;28;20193;-78
2022/11/12 06:44:59;;;;;;;10.98;7.32;;;;;;;;;;5056083;28;20182;-77
2022/11/12 06:47:25;;;;;;;10.57;7.03;;;;;;;;;;5055501;28;20214;-77
2022/11/12 06:49:51;;;;;;;10.27;7.38;;;;;;;;;;5039900;28;20549;-78
2022/11/12 06:52:17;;;;;;;11.70;7.55;;;;;;;;;;5055634;28;20207;-77
2022/11/12 06:54:43;;;;;;;11.77;7.80;;;;;;;;;;5039765;28;20182;-78
2022/11/12 06:57:09;;;;;;;12.45;7.85;;;;;;;;;;5057244;28;20468;-77
2022/11/12 06:59:35;;;;;;;15.10;7.97;;;;;;;;;;5056109;28;20189;-78
2022/11/12 07:02:02;;;;;;;13.68;7.80;;;;;;;;;;5055065;28;20676;-79
2022/11/12 07:04:28;;;;;;;11.05;8.63;;;;;;;;;;5038539;28;20192;-78
2022/11/12 07:06:54;;;;;;;11.98;8.02;;;;;;;;;;5055329;28;20194;-78
2022/11/12 07:09:20;;;;;;;15.30;7.55;;;;;;;;;;5055045;28;20170;-78
2022/11/12 07:11:46;;;;;;;14.63;8.70;;;;;;;;;;5055093;28;20201;-78
2022/11/12 07:14:12;;;;;;;12.73;9.13;;;;;;;;;;5055265;28;20630;-79
2022/11/12 07:16:38;;;;;;;15.65;9.25;;;;;;;;;;5055617;28;20278;-78
2022/11/12 07:19:04;;;;;;;18.27;10.95;;;;;;;;;;5055390;28;20583;-78
2022/11/12 07:21:30;;;;;;;17.88;9.70;;;;;;;;;;5056436;28;20515;-78
2022/11/12 07:23:56;;;;;;;14.55;8.52;;;;;;;;;;5037925;28;20178;-78
2022/11/12 07:26:23;;;;;;;10.85;8.50;;;;;;;;;;5038371;28;20178;-78
2022/11/12 07:28:50;;;;;;;17.48;9.05;;;;;;;;;;5056463;28;20170;-78
2022/11/12 07:31:16;;;;;;;17.30;9.55;;;;;;;;;;5055950;28;20297;-78
2022/11/12 07:33:43;;;;;;;14.93;7.95;;;;;;;;;;5054744;28;20260;-78
2022/11/12 07:36:13;;;;;;;13.05;7.28;;;;;;;;;;5054782;28;20223;-78
2022/11/12 07:38:40;;;;;;;14.55;8.18;;;;;;;;;;5055875;28;20176;-78
2022/11/12 07:41:14;;;;;;;14.68;9.80;;;;;;;;;;5056024;28;20182;-79
2022/11/12 07:43:40;;;;;;;11.10;8.70;;;;;;;;;;5055038;28;20166;-80
2022/11/12 07:46:08;;;;;;;15.23;8.48;;;;;;;;;;5055106;28;20170;-79
2022/11/12 07:48:34;;;;;;;14.05;8.70;;;;;;;;;;5054982;28;20173;-80
2022/11/12 07:51:01;;;;;;;11.60;6.82;;;;;;;;;;5054546;28;20227;-80
2022/11/12 07:53:27;;;;;;;14.80;7.95;;;;;;;;;;5053741;28;20174;-80
2022/11/12 07:55:54;;;;;;;10.15;7.53;;;;;;;;;;5054766;28;20235;-80
2022/11/12 07:58:20;;;;;;;14.18;7.40;;;;;;;;;;5055073;28;20173;-79
2022/11/12 08:00:46;;;;;;;13.18;7.55;;;;;;;;;;5055177;28;20188;-80
2022/11/12 08:03:12;;;;;;;13.93;8.55;;;;;;;;;;5055113;28;20161;-79
2022/11/12 08:05:38;;;;;;;11.40;7.03;;;;;;;;;;5036747;28;20181;-79
2022/11/12 08:08:04;;;;;;;11.93;8.15;;;;;;;;;;5053653;28;20204;-80
2022/11/12 08:10:30;;;;;;;10.27;8.00;;;;;;;;;;5053594;28;20270;-80
2022/11/12 08:12:57;;;;;;;17.65;8.02;;;;;;;;;;5053760;28;20256;-80
2022/11/12 08:15:23;;;;;;;15.52;8.40;;;;;;;;;;5054705;28;20223;-80
2022/11/12 08:17:49;;;;;;;13.23;8.35;;;;;;;;;;5054143;28;20166;-80
2022/11/12 08:20:15;;;;;;;11.95;7.75;;;;;;;;;;5037328;28;20181;-80
2022/11/12 08:22:41;;;;;;;12.70;9.32;;;;;;;;;;5055195;28;20227;-80
2022/11/12 08:25:07;;;;;;;13.43;8.20;;;;;;;;;;5053401;28;20188;-80
2022/11/12 08:27:33;;;;;;;10.88;9.35;;;;;;;;;;5052664;28;20173;-80
2022/11/12 08:30:00;;;;;;;11.13;8.68;;;;;;;;;;5053535;28;20185;-80
2022/11/12 08:32:26;;;;;;;12.88;9.25;;;;;;;;;;5055019;28;20307;-80
2022/11/12 08:34:52;;;;;;;12.90;8.65;;;;;;;;;;5036340;28;20503;-81
2022/11/12 08:37:18;;;;;;;13.88;8.98;;;;;;;;;;5035453;28;20189;-81
2022/11/12 08:39:44;;;;;;;14.18;8.70;;;;;;;;;;5054119;28;20595;-81
2022/11/12 08:42:10;;;;;;;15.25;9.02;;;;;;;;;;5053953;28;20184;-81
2022/11/12 08:44:36;;;;;;;11.02;8.38;;;;;;;;;;5053565;28;20181;-80
2022/11/12 08:47:02;;;;;;;11.63;9.40;;;;;;;;;;5035997;28;20181;-81
2022/11/12 08:49:28;;;;;;;11.40;8.05;;;;;;;;;;5053199;28;20196;-81
2022/11/12 08:51:54;;;;;;;13.68;8.18;;;;;;;;;;5041304;28;20206;-81
2022/11/12 08:54:20;;;;;;;11.95;7.80;;;;;;;;;;5031641;28;20185;-81
2022/11/12 08:56:46;;;;;;;11.82;7.35;;;;;;;;;;5034880;28;20185;-80
2022/11/12 08:59:12;;;;;;;13.10;7.28;;;;;;;;;;5036610;28;20208;-81
2022/11/12 09:01:38;;;;;;;9.75;7.45;;;;;;;;;;5020015;28;20702;-81
2022/11/12 09:04:05;;;;;;;10.38;6.20;;;;;;;;;;5020175;28;20240;-81
2022/11/12 09:06:31;;;;;;;8.55;5.30;;;;;;;;;;5027965;28;20187;-80
2022/11/12 09:08:57;;;;;;;8.90;5.63;;;;;;;;;;5020442;28;20191;-80
2022/11/12 09:11:23;;;;;;;8.40;5.53;;;;;;;;;;5017016;28;20214;-80
2022/11/12 09:13:49;;;;;;;9.23;5.40;;;;;;;;;;5020449;28;20274;-81
2022/11/12 09:16:16;;;;;;;11.65;5.03;;;;;;;;;;5036822;28;20182;-81
2022/11/12 09:18:42;;;;;;;5.60;4.45;;;;;;;;;;5036506;28;20565;-81
2022/11/12 09:21:10;;;;;;;7.45;5.18;;;;;;;;;;5036413;28;20212;-81
2022/11/12 09:23:37;;;;;;;5.63;4.93;;;;;;;;;;5036367;28;20627;-81
2022/11/12 09:26:04;;;;;;;7.13;5.28;;;;;;;;;;5036667;28;20213;-81
2022/11/12 09:28:30;;;;;;;4.95;4.35;;;;;;;;;;5035675;28;20190;-80
2022/11/12 09:30:56;;;;;;;6.30;5.20;;;;;;;;;;5036280;28;20214;-80
2022/11/12 09:33:27;;;;;;;4.80;4.20;;;;;;;;;;5037630;28;20190;-80
2022/11/12 09:35:53;;;;;;;6.07;4.45;;;;;;;;;;5037695;28;20213;-80
2022/11/12 09:38:21;;;;;;;7.40;4.82;;;;;;;;;;5037332;28;20177;-80
2022/11/12 09:40:53;;;;;;;11.75;6.40;;;;;;;;;;5035903;28;20189;-80
2022/11/12 09:43:22;;;;;;;8.13;5.72;;;;;;;;;;5037746;28;20178;-79
2022/11/12 09:45:48;;;;;;;8.60;5.78;;;;;;;;;;5036093;28;20214;-79
2022/11/12 09:48:18;;;;;;;9.70;5.87;;;;;;;;;;5034865;28;20588;-80
2022/11/12 09:50:55;;;;;;;6.60;5.30;;;;;;;;;;5036481;28;20828;-80
2022/11/12 09:53:33;;;;;;;7.50;5.03;;;;;;;;;;5036578;28;20480;-80
2022/11/12 09:56:00;;;;;;;5.73;4.57;;;;;;;;;;5035673;28;20779;-79
2022/11/12 09:58:26;;;;;;;6.27;5.37;;;;;;;;;;5037297;28;20522;-79
2022/11/12 10:00:54;;;;;;;6.30;5.40;;;;;;;;;;5034697;28;20433;-84
2022/11/12 10:03:28;;;;;;;6.20;5.20;;;;;;;;;;5034136;28;20425;-80
2022/11/12 10:06:01;;;;;;;5.90;4.83;;;;;;;;;;5035027;28;20404;-81
2022/11/12 10:08:27;;;;;;;6.20;5.60;;;;;;;;;;5034775;28;20507;-80
2022/11/12 10:11:12;;;;;;;5.47;4.90;;;;;;;;;;5034797;28;20828;-81
2022/11/12 10:13:47;;;;;;;6.03;5.20;;;;;;;;;;5034943;28;20963;-81
2022/11/12 10:19:09;;;;;;;5.90;4.20;;;;;;;;;;5035920;28;20935;-80
2022/11/12 10:21:37;;;;;;;7.67;5.10;;;;;;;;;;5034456;28;20441;-80
2022/11/12 10:24:07;;;;;;;8.83;4.73;;;;;;;;;;5035260;28;20423;-80
2022/11/12 10:26:33;;;;;;;5.33;4.40;;;;;;;;;;5035675;28;20493;-80
2022/11/12 10:29:18;;;;;;;7.90;5.23;;;;;;;;;;5018374;28;20421;-80
2022/11/12 10:31:44;;;;;;;8.47;5.83;;;;;;;;;;5034413;28;20476;-80
2022/11/12 10:34:13;;;;;;;6.17;5.57;;;;;;;;;;5034762;28;20504;-80
2022/11/12 10:36:43;;;;;;;8.37;5.10;;;;;;;;;;5034250;28;20444;-80
2022/11/12 10:39:09;;;;;;;5.80;4.57;;;;;;;;;;5035796;28;20492;-80
2022/11/12 10:41:35;;;;;;;6.37;5.20;;;;;;;;;;5034487;28;20417;-80
2022/11/12 10:44:02;;;;;;;8.73;5.83;;;;;;;;;;5035684;28;20753;-81
2022/11/12 10:46:36;;;;;;;8.40;4.47;;;;;;;;;;5035414;28;20704;-80
2022/11/12 10:49:04;;;;;;;5.53;4.80;;;;;;;;;;5033806;28;20914;-81
2022/11/12 10:51:32;;;;;;;6.17;5.03;;;;;;;;;;5035107;28;20963;-80
2022/11/12 10:53:59;;;;;;;7.03;5.90;;;;;;;;;;5034418;28;20424;-80
2022/11/12 10:56:34;;;;;;;6.80;5.10;;;;;;;;;;5034036;28;20417;-80
2022/11/12 10:59:10;;;;;;;6.13;4.90;;;;;;;;;;5035522;28;20360;-80
2022/11/12 11:01:37;;;;;;;7.80;5.40;;;;;;;;;;5034728;28;20475;-81
2022/11/12 11:04:03;;;;;;;7.30;5.50;;;;;;;;;;5035226;28;20383;-81
2022/11/12 11:06:29;;;;;;;7.43;5.90;;;;;;;;;;5033467;28;20396;-81
2022/11/12 11:09:28;;;;;;;5.40;4.90;;;;;;;;;;5033604;28;20391;-80
2022/11/12 11:11:54;;;;;;;7.73;5.60;;;;;;;;;;4990743;28;20477;-80
2022/11/12 11:14:23;;;;;;;6.90;5.63;;;;;;;;;;5034839;28;20398;-81
2022/11/12 11:16:53;;;;;;;7.43;6.20;;;;;;;;;;5034922;28;20455;-81
2022/11/12 11:19:20;;;;;;;6.67;5.90;;;;;;;;;;5032918;28;20413;-80
2022/11/12 11:21:49;;;;;;;8.03;6.00;;;;;;;;;;5033107;28;20416;-80
2022/11/12 11:24:24;;;;;;;11.03;6.23;;;;;;;;;;5033594;28;20928;-80
2022/11/12 11:26:56;;;;;;;6.83;6.10;;;;;;;;;;5033292;28;20503;-80
2022/11/12 11:29:25;;;;;;;7.43;5.67;;;;;;;;;;5034916;28;20388;-80
2022/11/12 11:31:52;;;;;;;5.13;4.60;;;;;;;;;;5033217;28;20450;-80
2022/11/12 11:34:24;;;;;;;7.30;5.90;;;;;;;;;;5033875;28;20901;-80
2022/11/12 11:37:15;;;;;;;6.20;5.00;;;;;;;;;;5033956;28;20434;-80
2022/11/12 11:40:01;;;;;;;5.77;5.20;;;;;;;;;;5033800;28;20360;-80
2022/11/12 11:42:36;;;;;;;7.40;5.57;;;;;;;;;;5032986;28;20793;-80
2022/11/12 11:45:09;;;;;;;7.13;6.07;;;;;;;;;;5033085;28;20517;-80
2022/11/12 11:47:50;;;;;;;6.53;5.60;;;;;;;;;;5032636;28;20387;-80
2022/11/12 11:50:16;;;;;;;6.20;5.20;;;;;;;;;;5032710;28;20509;-80
2022/11/12 11:52:42;;;;;;;7.07;6.20;;;;;;;;;;5033542;28;20894;-80
2022/11/12 11:55:14;;;;;;;5.80;5.30;;;;;;;;;;5032564;28;20418;-80
2022/11/12 11:57:59;;;;;;;6.60;5.27;;;;;;;;;;5032409;28;20387;-80
2022/11/12 12:00:29;;;;;;;8.53;5.37;;;;;;;;;;5032325;28;20400;-80
2022/11/12 12:03:14;;;;;;;4.77;4.27;;;;;;;;;;5033947;28;20479;-80
2022/11/12 12:05:55;;;;;;;5.83;4.80;;;;;;;;;;5033278;28;20782;-80
2022/11/12 12:08:30;;;;;;;5.00;4.50;;;;;;;;;;5033434;28;20809;-80
2022/11/12 12:11:17;;;;;;;8.50;4.50;;;;;;;;;;5033747;28;20479;-80
2022/11/12 12:13:56;;;;;;;4.67;4.13;;;;;;;;;;5033578;28;20399;-80
2022/11/12 12:16:41;;;;;;;6.13;4.70;;;;;;;;;;5033596;28;20391;-80
2022/11/12 12:19:07;;;;;;;5.00;4.50;;;;;;;;;;5033718;28;20423;-80
2022/11/12 12:21:34;;;;;;;5.27;4.40;;;;;;;;;;5031798;28;20444;-80
2022/11/12 12:24:19;;;;;;;6.20;4.70;;;;;;;;;;5032451;28;20396;-80
2022/11/12 12:26:47;;;;;;;5.10;4.60;;;;;;;;;;5031763;28;20376;-80
2022/11/12 12:29:19;;;;;;;4.93;4.47;;;;;;;;;;5032045;28;20475;-81
2022/11/12 12:31:48;;;;;;;5.70;4.77;;;;;;;;;;5032320;28;20843;-81
2022/11/12 12:34:18;;;;;;;4.37;3.97;;;;;;;;;;5033256;28;20405;-80
2022/11/12 12:36:44;;;;;;;5.50;5.00;;;;;;;;;;5031700;28;20401;-80
2022/11/12 12:39:15;;;;;;;11.43;4.53;;;;;;;;;;5033658;28;20447;-80
2022/11/12 12:41:44;;;;;;;5.33;4.80;;;;;;;;;;5031788;28;20395;-80
2022/11/12 12:44:11;;;;;;;5.60;4.23;;;;;;;;;;5031700;28;20921;-80
2022/11/12 12:46:40;;;;;;;7.57;4.90;;;;;;;;;;5031375;28;20482;-80
2022/11/12 12:49:06;;;;;;;5.20;4.70;;;;;;;;;;5032952;28;20397;-80
2022/11/12 12:51:34;;;;;;;5.47;4.57;;;;;;;;;;5032667;28;20442;-81
2022/11/12 12:54:00;;;;;;;5.47;4.43;;;;;;;;;;5031908;28;20417;-80
2022/11/12 12:56:32;;;;;;;6.70;4.60;;;;;;;;;;5015103;28;20421;-80
2022/11/12 12:59:02;;;;;;;5.40;4.53;;;;;;;;;;5031766;28;20821;-80
2022/11/12 13:01:30;;;;;;;7.40;4.93;;;;;;;;;;5031496;28;20824;-80
2022/11/12 13:04:07;;;;;;;6.40;4.70;;;;;;;;;;5032603;28;20492;-80
2022/11/12 13:06:45;;;;;;;5.20;4.70;;;;;;;;;;5032497;28;20405;-80
2022/11/12 13:09:11;;;;;;;6.80;5.53;;;;;;;;;;5031432;28;20803;-80
2022/11/12 13:14:34;;;;;;;4.20;3.80;;;;;;;;;;5032469;28;20409;-80
2022/11/12 13:17:04;;;;;;;5.97;4.70;;;;;;;;;;5031536;28;20852;-80
2022/11/12 13:19:49;;;;;;;5.53;4.13;;;;;;;;;;5031627;28;20408;-80
2022/11/12 13:22:18;;;;;;;4.23;3.83;;;;;;;;;;5032293;28;20391;-80
2022/11/12 13:25:03;;;;;;;4.80;3.97;;;;;;;;;;5031992;28;20409;-80
2022/11/12 13:27:44;;;;;;;6.30;4.30;;;;;;;;;;5030931;28;20482;-80
2022/11/12 13:30:13;;;;;;;7.37;4.67;;;;;;;;;;5032334;28;20546;-80
2022/11/12 13:32:48;;;;;;;4.93;3.93;;;;;;;;;;5030799;28;20481;-80
2022/11/12 13:35:14;;;;;;;5.10;4.10;;;;;;;;;;5032508;28;20383;-80
2022/11/12 13:37:52;;;;;;;5.33;4.20;;;;;;;;;;5030992;28;20779;-80
2022/11/12 13:40:39;;;;;;;4.40;3.80;;;;;;;;;;5031452;28;20784;-80
2022/11/12 13:43:20;;;;;;;4.63;4.00;;;;;;;;;;5034042;28;20416;-80
2022/11/12 13:45:48;;;;;;;5.17;4.33;;;;;;;;;;5035550;28;20559;-80
2022/11/12 13:48:26;;;;;;;4.70;4.20;;;;;;;;;;5036185;28;20515;-80
2022/11/12 13:50:55;;;;;;;6.33;4.40;;;;;;;;;;5035667;28;20873;-80
2022/11/12 13:53:25;;;;;;;5.73;4.50;;;;;;;;;;5036340;28;20798;-80
2022/11/12 13:55:52;;;;;;;5.73;4.80;;;;;;;;;;5034545;28;20420;-80
2022/11/12 13:58:20;;;;;;;5.70;4.27;;;;;;;;;;5035827;28;20405;-80
2022/11/12 14:00:53;;;;;;;8.13;6.00;;;;;;;;;;5035214;28;20897;-80
2022/11/12 14:03:19;;;;;;;5.20;4.70;;;;;;;;;;5034514;28;20395;-80
2022/11/12 14:05:47;;;;;;;4.83;4.33;;;;;;;;;;5035360;28;20476;-80
2022/11/12 14:08:19;;;;;;;6.77;4.80;;;;;;;;;;5035760;28;20386;-80
2022/11/12 14:11:03;;;;;;;4.67;4.13;;;;;;;;;;5035282;28;20444;-80
2022/11/12 14:13:35;;;;;;;6.10;5.00;;;;;;;;;;5036143;28;20367;-80
2022/11/12 14:16:18;;;;;;;8.13;4.80;;;;;;;;;;5034940;28;20424;-80
2022/11/12 14:18:47;;;;;;;6.40;4.90;;;;;;;;;;5035736;28;20752;-80
2022/11/12 14:21:16;;;;;;;6.57;4.67;;;;;;;;;;5036375;28;20421;-80
2022/11/12 14:23:45;;;;;;;4.97;4.53;;;;;;;;;;5033906;28;20392;-80
2022/11/12 14:26:12;;;;;;;6.10;5.50;;;;;;;;;;5034571;28;20391;-80
2022/11/12 14:28:39;;;;;;;7.67;6.00;;;;;;;;;;5035457;28;20388;-80
2022/11/12 14:31:11;;;;;;;6.63;5.37;;;;;;;;;;5035396;28;20508;-80
2022/11/12 14:33:37;;;;;;;7.27;5.67;;;;;;;;;;5035713;28;20401;-80
2022/11/12 14:36:11;;;;;;;7.07;4.80;;;;;;;;;;5034070;28;20486;-80
2022/11/12 14:38:39;;;;;;;8.33;5.03;;;;;;;;;;5033829;28;20383;-80
2022/11/12 14:41:10;;;;;;;6.30;5.67;;;;;;;;;;5035332;28;20380;-80
2022/11/12 14:43:38;;;;;;;8.87;6.20;;;;;;;;;;5035210;28;20417;-80
2022/11/12 14:46:05;;;;;;;7.33;5.23;;;;;;;;;;5034063;28;20449;-80
2022/11/12 14:48:35;;;;;;;8.70;5.40;;;;;;;;;;5033991;28;20396;-80
2022/11/12 14:51:04;;;;;;;6.67;5.80;;;;;;;;;;5033333;28;20447;-80
2022/11/12 14:53:32;;;;;;;6.23;5.57;;;;;;;;;;5033992;28;20429;-80
2022/11/12 14:56:00;;;;;;;6.73;5.90;;;;;;;;;;5034343;28;20437;-80
2022/11/12 14:58:27;;;;;;;7.87;5.63;;;;;;;;;;5034875;28;20420;-80
2022/11/12 15:00:54;;;;;;;7.13;5.90;;;;;;;;;;5034577;28;20465;-80
2022/11/12 15:03:22;;;;;;;8.77;6.70;;;;;;;;;;5034938;28;20741;-80
2022/11/12 15:05:53;;;;;;;6.77;5.60;;;;;;;;;;5033333;28;20467;-79
2022/11/12 15:08:27;;;;;;;8.97;6.20;;;;;;;;;;5033745;28;20411;-80
2022/11/12 15:10:53;;;;;;;8.30;5.83;;;;;;;;;;5034289;28;20368;-80